Time;durP1;ratioP1;P1;durP2;ratioP2;P2;SDS_P1;SDS_P2;PMS_P1;PMS_P2;Temp;Humidity;BMP_temperature;BMP_pressure;BME280_temperature;BME280_humidity;BME280_pressure;Samples;Min_cycle;Max_cycle;Signal;HPM_P1;HPM_P2
2021/07/09 00:01:36;;;;;;;3.88;2.63;;;15.70;58.20;;;;;;5109258;27;20072;-71
2021/07/09 00:04:26;;;;;;;8.10;3.15;;;15.70;58.60;;;;;;5115073;27;20158;-71
2021/07/09 00:07:14;;;;;;;5.00;3.00;;;15.70;58.60;;;;;;5108390;27;20055;-72
2021/07/09 00:10:03;;;;;;;4.03;3.08;;;15.80;58.70;;;;;;5106576;27;20051;-73
2021/07/09 00:12:51;;;;;;;5.68;2.80;;;15.80;59.10;;;;;;5095753;27;20051;-73
2021/07/09 00:15:40;;;;;;;5.22;3.28;;;15.80;58.90;;;;;;5108176;27;20055;-72
2021/07/09 00:18:30;;;;;;;5.65;2.67;;;15.80;58.70;;;;;;5095464;27;20070;-73
2021/07/09 00:21:18;;;;;;;8.02;2.65;;;15.80;58.70;;;;;;5111057;27;20406;-72
2021/07/09 00:24:08;;;;;;;3.75;2.83;;;15.70;58.50;;;;;;5115252;27;20454;-71
2021/07/09 00:26:57;;;;;;;4.32;2.90;;;15.70;58.30;;;;;;5108411;27;20044;-72
2021/07/09 00:29:45;;;;;;;4.93;2.55;;;15.80;58.70;;;;;;5109308;27;20065;-70
2021/07/09 00:32:34;;;;;;;3.00;2.63;;;15.80;58.10;;;;;;5107135;27;20047;-71
2021/07/09 00:35:23;;;;;;;5.68;2.75;;;15.80;58.70;;;;;;5104632;27;20047;-73
2021/07/09 00:38:12;;;;;;;4.07;2.80;;;15.80;58.70;;;;;;5095812;27;20123;-72
2021/07/09 00:41:00;;;;;;;7.18;3.05;;;15.80;58.10;;;;;;5115590;27;20042;-71
2021/07/09 00:43:49;;;;;;;5.70;3.25;;;15.80;58.20;;;;;;5107983;27;20494;-73
2021/07/09 00:46:39;;;;;;;4.47;3.08;;;15.80;58.70;;;;;;5102545;27;20039;-73
2021/07/09 00:49:28;;;;;;;6.00;3.00;;;15.80;58.70;;;;;;5108135;27;20035;-72
2021/07/09 00:52:19;;;;;;;5.38;3.40;;;15.80;58.70;;;;;;5111270;27;20054;-72
2021/07/09 00:55:09;;;;;;;3.75;3.40;;;15.80;58.60;;;;;;5112943;27;20561;-72
2021/07/09 00:58:00;;;;;;;5.05;3.50;;;15.90;58.70;;;;;;5107816;27;20426;-72
2021/07/09 01:00:49;;;;;;;3.95;3.60;;;15.80;59.30;;;;;;5110869;27;20043;-72
2021/07/09 01:03:37;;;;;;;8.18;3.67;;;15.90;60.20;;;;;;5109051;27;20047;-73
2021/07/09 01:06:26;;;;;;;4.07;3.17;;;15.80;59.40;;;;;;5111652;27;20098;-72
2021/07/09 01:09:15;;;;;;;5.82;3.70;;;15.80;58.70;;;;;;5111657;27;20447;-72
2021/07/09 01:12:05;;;;;;;6.00;4.15;;;15.80;60.40;;;;;;5111407;27;20062;-72
2021/07/09 01:14:53;;;;;;;6.60;4.10;;;15.90;60.90;;;;;;5109283;27;20051;-71
2021/07/09 01:17:42;;;;;;;5.47;3.90;;;15.90;60.80;;;;;;5092790;27;20040;-71
2021/07/09 01:20:31;;;;;;;5.53;3.97;;;15.70;59.60;;;;;;5104785;27;20062;-71
2021/07/09 01:23:26;;;;;;;5.65;3.78;;;15.80;60.60;;;;;;5110006;27;20073;-72
2021/07/09 01:26:15;;;;;;;6.55;3.75;;;15.80;61.00;;;;;;5107644;27;20756;-71
2021/07/09 01:29:05;;;;;;;8.52;4.13;;;15.80;61.30;;;;;;5109377;27;20039;-72
2021/07/09 01:31:55;;;;;;;7.50;3.95;;;15.70;60.90;;;;;;5108021;27;20589;-72
2021/07/09 01:34:43;;;;;;;6.03;3.75;;;15.70;60.80;;;;;;5108622;27;20055;-72
2021/07/09 01:37:32;;;;;;;5.80;4.28;;;15.70;61.10;;;;;;5108822;27;20107;-72
2021/07/09 01:40:20;;;;;;;5.20;4.10;;;15.70;62.00;;;;;;5110159;27;20048;-72
2021/07/09 01:43:10;;;;;;;9.93;4.20;;;15.60;62.40;;;;;;5110796;27;20715;-72
2021/07/09 01:45:59;;;;;;;6.78;5.00;;;15.60;62.70;;;;;;5107667;27;20040;-72
2021/07/09 01:48:47;;;;;;;7.95;4.88;;;15.50;62.90;;;;;;5106695;27;20522;-71
2021/07/09 01:51:36;;;;;;;8.25;5.22;;;15.60;63.50;;;;;;5104955;27;20065;-72
2021/07/09 01:54:24;;;;;;;9.77;4.97;;;15.60;63.50;;;;;;5108857;27;20061;-72
2021/07/09 01:57:13;;;;;;;8.70;5.40;;;15.60;64.10;;;;;;5109517;27;20059;-72
2021/07/09 02:00:08;;;;;;;6.75;5.20;;;15.60;64.70;;;;;;5107722;27;20491;-71
2021/07/09 02:02:56;;;;;;;7.47;5.60;;;15.60;64.80;;;;;;5096497;27;20542;-72
2021/07/09 02:05:45;;;;;;;16.92;5.75;;;15.60;64.90;;;;;;5107542;27;20283;-71
2021/07/09 02:08:33;;;;;;;7.20;5.03;;;15.50;64.80;;;;;;5106433;27;20107;-71
2021/07/09 02:11:21;;;;;;;7.60;4.93;;;15.50;64.50;;;;;;5111520;27;20505;-71
2021/07/09 02:14:10;;;;;;;7.05;5.03;;;15.50;64.30;;;;;;5108967;27;20478;-72
2021/07/09 02:17:00;;;;;;;7.70;5.25;;;15.50;64.60;;;;;;5107733;27;20444;-73
2021/07/09 02:19:49;;;;;;;7.13;5.00;;;15.50;64.70;;;;;;5106534;27;20046;-72
2021/07/09 02:22:37;;;;;;;8.20;4.55;;;15.50;64.60;;;;;;5110081;27;20873;-72
2021/07/09 02:25:26;;;;;;;5.75;4.65;;;15.50;64.50;;;;;;5108947;27;20337;-72
2021/07/09 02:28:15;;;;;;;11.57;5.00;;;15.40;64.20;;;;;;5107285;27;20054;-71
2021/07/09 02:31:03;;;;;;;7.88;5.15;;;15.50;64.20;;;;;;5107523;27;20059;-72
2021/07/09 02:33:53;;;;;;;7.38;4.63;;;15.50;64.50;;;;;;5112225;27;20031;-71
2021/07/09 02:36:41;;;;;;;6.60;5.13;;;15.50;64.40;;;;;;5104499;27;20054;-72
2021/07/09 02:39:29;;;;;;;6.80;5.07;;;15.40;64.80;;;;;;5108444;27;20046;-72
2021/07/09 02:42:18;;;;;;;12.82;5.20;;;15.40;65.50;;;;;;5105165;27;20062;-72
2021/07/09 02:45:08;;;;;;;6.85;5.10;;;15.30;65.30;;;;;;5107553;27;20126;-72
2021/07/09 02:47:56;;;;;;;8.02;5.22;;;15.30;65.60;;;;;;5108048;27;20055;-71
2021/07/09 02:50:47;;;;;;;9.52;6.13;;;15.30;65.70;;;;;;5110281;27;20502;-72
2021/07/09 02:53:35;;;;;;;9.30;5.80;;;15.30;65.80;;;;;;5108196;27;20050;-71
2021/07/09 02:56:23;;;;;;;8.52;5.60;;;15.30;65.70;;;;;;5111606;27;20123;-72
2021/07/09 02:59:12;;;;;;;9.90;5.93;;;15.30;66.00;;;;;;5106854;28;20059;-72
2021/07/09 03:02:00;;;;;;;12.40;5.95;;;15.40;66.30;;;;;;5110356;28;20062;-74
2021/07/09 03:04:49;;;;;;;8.18;5.95;;;15.40;66.00;;;;;;5108738;28;20134;-73
2021/07/09 03:07:39;;;;;;;10.02;5.30;;;15.40;65.70;;;;;;5103855;28;20044;-73
2021/07/09 03:10:28;;;;;;;8.18;6.22;;;15.40;65.70;;;;;;5103285;28;20055;-72
2021/07/09 03:13:16;;;;;;;7.30;5.25;;;15.40;66.10;;;;;;5110443;28;20406;-72
2021/07/09 03:16:05;;;;;;;9.65;5.75;;;15.40;65.60;;;;;;5110036;28;20044;-73
2021/07/09 03:18:53;;;;;;;8.93;6.00;;;15.40;65.30;;;;;;5111749;27;20432;-74
2021/07/09 03:21:42;;;;;;;11.00;5.72;;;15.40;65.80;;;;;;5109026;27;20070;-72
2021/07/09 03:24:32;;;;;;;11.70;5.57;;;15.40;65.60;;;;;;5113471;27;20044;-73
2021/07/09 03:27:20;;;;;;;10.00;5.60;;;15.40;66.00;;;;;;5114153;27;20078;-73
2021/07/09 03:30:10;;;;;;;8.70;5.65;;;15.40;65.50;;;;;;5111232;27;20048;-74
2021/07/09 03:32:58;;;;;;;10.13;5.68;;;15.40;65.20;;;;;;5100770;27;20051;-74
2021/07/09 03:35:47;;;;;;;6.82;5.03;;;15.30;64.50;;;;;;5109825;27;20119;-72
2021/07/09 03:38:35;;;;;;;7.07;5.45;;;15.40;65.20;;;;;;5111251;27;20047;-73
2021/07/09 03:41:26;;;;;;;11.20;5.50;;;15.40;64.50;;;;;;5114868;27;20081;-73
2021/07/09 03:44:14;;;;;;;7.45;5.70;;;15.30;64.10;;;;;;5114186;27;20047;-72
2021/07/09 03:47:03;;;;;;;7.63;6.32;;;15.30;64.50;;;;;;5109003;27;20047;-73
2021/07/09 03:49:52;;;;;;;10.68;6.82;;;15.30;64.60;;;;;;5110075;27;20051;-72
2021/07/09 03:52:40;;;;;;;9.02;6.28;;;15.30;64.40;;;;;;5108254;27;20057;-73
2021/07/09 03:55:29;;;;;;;7.20;5.63;;;15.30;64.10;;;;;;5113759;27;20430;-72
2021/07/09 03:58:19;;;;;;;9.50;5.40;;;15.30;64.40;;;;;;5091927;27;20176;-72
2021/07/09 04:01:07;;;;;;;9.68;6.40;;;15.30;63.90;;;;;;5113184;27;20126;-71
2021/07/09 04:03:56;;;;;;;13.05;6.07;;;15.20;64.50;;;;;;5112412;27;20058;-72
2021/07/09 04:06:44;;;;;;;11.85;5.68;;;15.20;64.40;;;;;;5113265;27;20291;-73
2021/07/09 04:09:32;;;;;;;12.88;5.78;;;15.20;64.20;;;;;;5110563;27;20058;-71
2021/07/09 04:12:21;;;;;;;6.70;5.55;;;15.20;63.60;;;;;;5110193;27;20438;-71
2021/07/09 04:15:12;;;;;;;8.35;5.63;;;15.20;64.30;;;;;;5107731;27;20047;-72
2021/07/09 04:18:00;;;;;;;10.23;5.65;;;15.20;63.30;;;;;;5111810;27;20047;-73
2021/07/09 04:20:49;;;;;;;7.55;5.80;;;15.20;63.10;;;;;;5113017;27;20047;-73
2021/07/09 04:23:37;;;;;;;12.00;5.75;;;15.30;64.20;;;;;;5106595;27;20050;-72
2021/07/09 04:26:25;;;;;;;7.68;5.80;;;15.20;64.00;;;;;;5112388;27;20361;-73
2021/07/09 04:29:14;;;;;;;8.68;5.68;;;15.20;64.60;;;;;;5109902;27;20039;-72
2021/07/09 04:32:04;;;;;;;11.35;6.28;;;15.10;65.40;;;;;;5112879;27;20495;-72
2021/07/09 04:34:52;;;;;;;10.80;5.90;;;15.00;65.60;;;;;;5108516;27;20044;-72
2021/07/09 04:37:41;;;;;;;8.20;6.25;;;15.00;66.10;;;;;;5107217;27;20143;-72
2021/07/09 04:40:30;;;;;;;8.82;6.38;;;14.90;66.00;;;;;;5108820;27;20659;-71
2021/07/09 04:43:18;;;;;;;10.02;6.20;;;15.00;66.30;;;;;;5108401;27;20067;-72
2021/07/09 04:46:07;;;;;;;10.70;6.97;;;15.00;66.30;;;;;;5110347;27;21480;-71
2021/07/09 04:48:57;;;;;;;9.40;6.15;;;15.00;67.00;;;;;;5106489;27;20108;-72
2021/07/09 04:51:45;;;;;;;9.73;6.82;;;14.90;66.20;;;;;;5107398;27;20056;-70
2021/07/09 04:54:34;;;;;;;9.40;6.18;;;15.00;66.80;;;;;;5115348;27;20497;-71
2021/07/09 04:57:23;;;;;;;8.18;5.53;;;14.80;66.60;;;;;;5110766;27;20051;-72
2021/07/09 05:00:12;;;;;;;8.52;5.72;;;14.90;67.00;;;;;;5110774;27;20417;-72
2021/07/09 05:03:01;;;;;;;10.32;6.53;;;14.90;66.70;;;;;;5109306;27;20045;-71
2021/07/09 05:05:52;;;;;;;10.30;6.20;;;14.90;67.40;;;;;;5106982;27;20048;-70
2021/07/09 05:08:41;;;;;;;7.70;5.65;;;14.90;66.80;;;;;;5096409;27;20055;-72
2021/07/09 05:11:29;;;;;;;10.63;5.82;;;15.00;67.10;;;;;;5113649;27;20164;-71
2021/07/09 05:14:17;;;;;;;9.60;6.22;;;15.00;66.90;;;;;;5108614;27;20131;-73
2021/07/09 05:17:06;;;;;;;10.73;6.32;;;15.00;66.30;;;;;;5107302;27;20448;-73
2021/07/09 05:19:55;;;;;;;13.18;5.80;;;15.00;66.30;;;;;;5110262;27;20526;-72
2021/07/09 05:22:45;;;;;;;8.25;6.55;;;15.00;66.30;;;;;;5109910;27;20063;-72
2021/07/09 05:25:34;;;;;;;7.95;6.78;;;15.10;66.40;;;;;;5105097;27;20181;-72
2021/07/09 05:28:22;;;;;;;7.93;5.90;;;15.10;66.30;;;;;;5109176;27;20055;-72
2021/07/09 05:31:10;;;;;;;7.60;6.15;;;15.10;65.70;;;;;;5108963;27;20068;-73
2021/07/09 05:34:00;;;;;;;13.52;6.05;;;15.20;64.80;;;;;;5112307;27;20058;-71
2021/07/09 05:36:48;;;;;;;10.75;6.78;;;15.10;64.60;;;;;;5109250;27;20408;-72
2021/07/09 05:39:38;;;;;;;9.38;6.78;;;15.10;64.30;;;;;;5108818;27;20043;-72
2021/07/09 05:42:26;;;;;;;11.80;6.88;;;15.10;63.70;;;;;;5105695;27;20048;-72
2021/07/09 05:45:15;;;;;;;10.07;6.95;;;15.10;64.20;;;;;;5114483;27;20136;-74
2021/07/09 05:48:04;;;;;;;10.48;5.65;;;15.10;64.40;;;;;;5108661;27;20225;-72
2021/07/09 05:50:52;;;;;;;8.05;5.78;;;15.00;64.80;;;;;;5107541;27;20391;-72
2021/07/09 05:53:40;;;;;;;9.35;6.97;;;15.00;64.50;;;;;;5106563;27;20086;-73
2021/07/09 05:56:30;;;;;;;8.27;6.68;;;15.10;64.70;;;;;;5108427;27;20040;-73
2021/07/09 05:59:18;;;;;;;7.82;6.18;;;15.10;65.00;;;;;;5107590;27;20044;-73
2021/07/09 06:02:08;;;;;;;9.07;6.47;;;15.10;65.00;;;;;;5112357;27;20565;-73
2021/07/09 06:04:57;;;;;;;11.15;6.13;;;15.00;64.40;;;;;;5106223;27;20135;-72
2021/07/09 06:07:45;;;;;;;9.30;6.22;;;15.10;65.10;;;;;;5108024;27;20056;-72
2021/07/09 06:10:35;;;;;;;8.43;6.38;;;15.00;64.10;;;;;;5106578;27;20047;-73
2021/07/09 06:13:25;;;;;;;7.97;5.95;;;15.10;65.00;;;;;;5096153;27;20088;-73
2021/07/09 06:16:14;;;;;;;8.35;6.10;;;15.10;64.40;;;;;;5103146;27;20051;-73
2021/07/09 06:19:03;;;;;;;10.95;6.80;;;15.10;64.50;;;;;;5103131;27;20514;-73
2021/07/09 06:21:51;;;;;;;9.98;7.30;;;15.20;65.70;;;;;;5107760;27;20058;-73
2021/07/09 06:24:39;;;;;;;8.13;6.65;;;15.20;65.60;;;;;;5108151;27;20519;-73
2021/07/09 06:27:28;;;;;;;9.82;7.00;;;15.10;64.30;;;;;;5110632;27;20043;-73
2021/07/09 06:30:18;;;;;;;8.10;7.28;;;15.10;64.40;;;;;;5111630;27;20551;-71
2021/07/09 06:33:14;;;;;;;11.65;7.63;;;15.10;64.30;;;;;;5107033;27;20131;-73
2021/07/09 06:36:03;;;;;;;8.98;7.90;;;15.20;65.40;;;;;;5107961;27;20127;-72
2021/07/09 06:38:51;;;;;;;9.82;7.43;;;15.20;64.40;;;;;;5108888;27;20036;-73
2021/07/09 06:41:40;;;;;;;9.63;8.60;;;15.20;65.20;;;;;;5108613;27;20043;-72
2021/07/09 06:44:28;;;;;;;11.70;9.35;;;15.40;66.30;;;;;;5108000;27;20437;-72
2021/07/09 06:47:18;;;;;;;11.68;8.88;;;15.30;64.50;;;;;;5105736;27;20046;-73
2021/07/09 06:50:07;;;;;;;9.52;8.50;;;15.40;64.60;;;;;;5107768;27;20402;-73
2021/07/09 06:52:55;;;;;;;12.80;9.35;;;15.40;63.90;;;;;;5110371;27;20054;-72
2021/07/09 06:55:43;;;;;;;12.93;9.13;;;15.50;64.10;;;;;;5104322;27;20525;-73
2021/07/09 06:58:33;;;;;;;11.30;8.55;;;15.50;64.00;;;;;;5104597;28;20541;-73
2021/07/09 07:01:21;;;;;;;13.60;8.60;;;15.60;64.50;;;;;;5106249;28;20048;-73
2021/07/09 07:04:12;;;;;;;9.85;8.48;;;15.60;62.60;;;;;;5089406;28;20047;-73
2021/07/09 07:07:01;;;;;;;8.95;7.90;;;15.60;62.60;;;;;;5109533;28;20055;-73
2021/07/09 07:09:50;;;;;;;10.85;7.60;;;15.60;62.10;;;;;;5110786;28;20048;-73
2021/07/09 07:12:41;;;;;;;12.32;8.70;;;15.50;62.20;;;;;;5103398;28;20059;-74
2021/07/09 07:15:33;;;;;;;12.48;8.30;;;15.70;62.70;;;;;;5091044;28;20102;-74
2021/07/09 07:18:22;;;;;;;10.05;8.80;;;15.70;61.80;;;;;;5109378;28;20248;-74
2021/07/09 07:21:13;;;;;;;12.32;8.75;;;15.80;62.80;;;;;;5094638;28;20086;-73
2021/07/09 07:24:02;;;;;;;13.20;9.18;;;15.70;60.90;;;;;;5092043;28;20465;-73
2021/07/09 07:26:51;;;;;;;9.77;8.52;;;15.80;61.70;;;;;;5106713;28;20040;-75
2021/07/09 07:29:39;;;;;;;11.23;8.57;;;15.90;61.30;;;;;;5104592;28;20044;-73
2021/07/09 07:32:28;;;;;;;12.32;9.32;;;16.00;60.90;;;;;;5106751;28;20570;-73
2021/07/09 07:35:16;;;;;;;14.02;9.40;;;16.00;60.70;;;;;;5108374;28;20512;-75
2021/07/09 07:38:06;;;;;;;11.50;10.05;;;16.00;60.20;;;;;;5091459;28;20563;-72
2021/07/09 07:40:55;;;;;;;12.18;9.05;;;16.20;61.80;;;;;;5107707;28;20423;-76
2021/07/09 07:43:43;;;;;;;13.00;9.68;;;16.20;59.50;;;;;;5103030;28;20303;-75
2021/07/09 07:46:32;;;;;;;15.93;9.38;;;16.30;59.30;;;;;;5108181;28;20052;-73
2021/07/09 07:49:21;;;;;;;11.07;8.38;;;16.30;58.30;;;;;;5092798;28;20529;-74
2021/07/09 07:52:10;;;;;;;12.18;9.10;;;16.30;58.10;;;;;;5107659;28;20806;-74
2021/07/09 07:55:00;;;;;;;9.73;8.15;;;16.40;59.20;;;;;;5108910;28;20059;-74
2021/07/09 07:57:49;;;;;;;9.27;7.65;;;16.30;55.00;;;;;;5094270;28;20031;-75
2021/07/09 08:00:37;;;;;;;12.63;8.90;;;16.60;57.10;;;;;;5103973;28;20414;-74
2021/07/09 08:03:26;;;;;;;15.57;8.30;;;16.70;55.70;;;;;;5104842;28;20157;-75
2021/07/09 08:06:14;;;;;;;10.25;7.85;;;16.90;57.40;;;;;;5107587;27;20449;-76
2021/07/09 08:09:03;;;;;;;11.70;7.75;;;17.00;52.50;;;;;;5109864;27;20058;-74
2021/07/09 08:11:56;;;;;;;8.48;7.05;;;16.90;51.00;;;;;;5112057;27;20044;-74
2021/07/09 08:14:44;;;;;;;7.50;6.65;;;16.80;50.50;;;;;;5107275;27;20137;-76
2021/07/09 08:17:33;;;;;;;9.43;6.32;;;16.80;51.40;;;;;;5110974;27;20040;-75
2021/07/09 08:20:21;;;;;;;8.18;6.60;;;16.70;48.30;;;;;;5107404;27;20039;-74
2021/07/09 08:23:10;;;;;;;10.48;6.43;;;16.80;48.30;;;;;;5109523;27;20047;-74
2021/07/09 08:25:59;;;;;;;8.40;7.18;;;16.80;51.40;;;;;;5094357;27;20040;-74
2021/07/09 08:28:49;;;;;;;9.48;7.10;;;17.10;51.70;;;;;;5106402;27;20047;-74
2021/07/09 08:31:38;;;;;;;7.82;6.55;;;17.10;49.00;;;;;;5108620;27;20490;-74
2021/07/09 08:34:27;;;;;;;9.20;7.20;;;17.30;47.90;;;;;;5108653;27;20079;-75
2021/07/09 08:37:15;;;;;;;7.55;6.10;;;17.20;43.50;;;;;;5112933;27;20542;-75
2021/07/09 08:40:04;;;;;;;8.88;6.35;;;17.30;43.20;;;;;;5107925;27;20110;-73
2021/07/09 08:42:52;;;;;;;7.20;5.70;;;17.60;43.80;;;;;;5108584;27;20094;-75
2021/07/09 08:45:42;;;;;;;7.85;6.00;;;17.50;38.80;;;;;;5110521;27;20525;-74
2021/07/09 08:48:31;;;;;;;12.70;6.35;;;17.60;39.60;;;;;;5112324;27;20043;-76
2021/07/09 08:51:19;;;;;;;7.75;6.13;;;18.10;36.50;;;;;;5090832;27;20105;-75
2021/07/09 08:54:10;;;;;;;8.98;6.80;;;17.90;33.30;;;;;;5106838;27;20047;-75
2021/07/09 08:56:59;;;;;;;14.63;6.28;;;18.30;33.70;;;;;;5108243;27;20043;-75
2021/07/09 08:59:47;;;;;;;8.30;6.43;;;18.10;29.30;;;;;;5106933;27;20043;-75
2021/07/09 09:02:46;;;;;;;8.32;5.18;;;18.40;25.80;;;;;;5107425;27;20061;-75
2021/07/09 09:05:34;;;;;;;8.43;5.57;;;18.40;27.10;;;;;;5111701;27;20055;-77
2021/07/09 09:08:23;;;;;;;7.03;5.47;;;18.30;29.70;;;;;;5090076;27;20546;-75
2021/07/09 09:11:12;;;;;;;8.00;5.85;;;18.40;25.60;;;;;;5107758;27;20059;-75
2021/07/09 09:14:23;;;;;;;6.80;5.60;;;18.40;24.00;;;;;;5108801;27;20057;-75
2021/07/09 09:17:31;;;;;;;7.72;5.43;;;18.50;28.30;;;;;;5110118;27;20652;-76
2021/07/09 09:20:21;;;;;;;7.20;5.05;;;18.50;24.30;;;;;;5103823;27;20053;-75
2021/07/09 09:23:13;;;;;;;9.15;5.70;;;18.60;24.40;;;;;;5108554;27;20517;-75
2021/07/09 09:26:01;;;;;;;10.98;5.35;;;18.60;22.00;;;;;;5104920;27;20406;-75
2021/07/09 09:28:50;;;;;;;9.35;5.30;;;18.60;22.70;;;;;;5107593;27;20417;-75
2021/07/09 09:31:40;;;;;;;8.05;5.75;;;19.10;21.30;;;;;;5106706;27;20116;-76
2021/07/09 09:34:36;;;;;;;5.80;5.07;;;18.80;18.90;;;;;;5104823;27;20737;-74
2021/07/09 09:37:30;;;;;;;8.35;5.43;;;19.30;17.80;;;;;;5108177;27;20032;-75
2021/07/09 09:40:20;;;;;;;11.18;5.13;;;19.20;17.00;;;;;;5107261;27;20493;-74
2021/07/09 09:43:11;;;;;;;7.55;5.22;;;18.80;17.50;;;;;;5108494;27;20471;-75
2021/07/09 09:46:03;;;;;;;9.40;5.25;;;18.90;17.50;;;;;;5090442;27;20406;-75
2021/07/09 09:48:52;;;;;;;9.25;5.68;;;19.10;18.70;;;;;;5105286;27;20089;-74
2021/07/09 09:51:40;;;;;;;6.93;5.10;;;19.40;20.20;;;;;;5108082;27;20043;-75
2021/07/09 09:54:35;;;;;;;5.90;5.30;;;19.60;17.00;;;;;;5107628;27;20051;-73
2021/07/09 09:57:23;;;;;;;;;;;19.90;16.20;;;;;;5106594;27;20117;-72
2021/07/09 10:00:28;;;;;;;7.38;4.75;;;19.60;14.40;;;;;;5107522;27;19939;-72
2021/07/09 10:03:37;;;;;;;6.37;4.53;;;20.10;14.30;;;;;;5108789;27;20051;-72
2021/07/09 10:06:26;;;;;;;6.43;4.68;;;19.70;11.70;;;;;;5093974;27;20177;-72
2021/07/09 10:09:16;;;;;;;7.90;4.90;;;19.60;14.40;;;;;;5106138;27;20130;-71
2021/07/09 10:12:07;;;;;;;6.10;4.68;;;19.30;14.10;;;;;;5079884;27;20044;-72
2021/07/09 10:14:56;;;;;;;7.03;4.75;;;19.40;9.00;;;;;;5110311;27;20075;-72
2021/07/09 10:17:50;;;;;;;7.75;4.90;;;19.70;11.90;;;;;;5112826;27;20047;-75
2021/07/09 10:20:38;;;;;;;7.78;4.53;;;20.00;9.40;;;;;;5112873;27;20044;-71
2021/07/09 10:23:27;;;;;;;7.57;5.32;;;20.30;9.20;;;;;;5090251;27;20414;-71
2021/07/09 10:26:19;;;;;;;7.00;4.68;;;20.00;7.20;;;;;;5107799;27;20615;-71
2021/07/09 10:29:13;;;;;;;5.28;4.47;;;20.10;10.50;;;;;;5087254;28;20040;-71
2021/07/09 10:32:02;;;;;;;6.45;4.60;;;19.90;8.60;;;;;;5112736;27;20043;-71
2021/07/09 10:34:51;;;;;;;6.82;4.32;;;19.80;8.60;;;;;;5108921;27;20073;-72
2021/07/09 10:37:39;;;;;;;5.10;4.18;;;20.40;7.40;;;;;;5106450;27;20056;-72
2021/07/09 10:40:29;;;;;;;6.68;4.22;;;20.30;3.90;;;;;;5091147;27;20040;-72
2021/07/09 10:43:19;;;;;;;4.65;4.05;;;20.20;4.60;;;;;;5107518;27;20067;-71
2021/07/09 10:46:09;;;;;;;7.32;3.90;;;20.70;1.90;;;;;;5100041;27;20039;-72
2021/07/09 10:49:00;;;;;;;4.18;3.67;;;21.20;1.90;;;;;;5106410;27;20039;-72
2021/07/09 10:52:00;;;;;;;5.07;3.72;;;21.20;1.00;;;;;;5104402;27;20051;-71
2021/07/09 10:54:50;;;;;;;7.97;4.15;;;21.30;1.00;;;;;;5106550;27;20085;-72
2021/07/09 10:57:38;;;;;;;5.53;3.63;;;21.00;1.00;;;;;;5103893;28;20065;-72
2021/07/09 11:00:29;;;;;;;5.25;3.70;;;21.20;1.00;;;;;;5104967;27;20050;-72
2021/07/09 11:03:30;;;;;;;9.00;4.13;;;21.10;1.00;;;;;;5107301;28;20267;-71
2021/07/09 11:06:22;;;;;;;6.53;4.70;;;21.20;1.00;;;;;;5109649;28;20200;-72
2021/07/09 11:09:15;;;;;;;5.43;3.83;;;21.10;1.00;;;;;;5104281;28;20082;-72
2021/07/09 11:12:09;;;;;;;4.40;3.97;;;21.00;1.00;;;;;;5106049;28;20051;-72
2021/07/09 11:15:03;;;;;;;7.90;3.92;;;21.80;1.00;;;;;;5107179;28;20035;-72
2021/07/09 11:18:12;;;;;;;4.70;3.80;;;22.10;1.00;;;;;;5107568;28;20122;-72
2021/07/09 11:21:08;;;;;;;4.90;3.97;;;22.00;1.00;;;;;;5112217;28;20040;-72
2021/07/09 11:24:04;;;;;;;6.38;3.67;;;22.20;1.00;;;;;;5108009;28;20075;-72
2021/07/09 11:26:54;;;;;;;5.60;4.88;;;22.10;1.00;;;;;;5101841;28;20513;-71
2021/07/09 11:29:47;;;;;;;;;;;21.30;1.00;;;;;;5106830;28;20051;-70
2021/07/09 11:32:41;;;;;;;7.20;4.88;;;21.70;1.00;;;;;;5105490;28;19934;-72
2021/07/09 11:35:29;;;;;;;7.60;4.72;;;21.50;1.00;;;;;;5103693;28;20402;-72
2021/07/09 11:38:19;;;;;;;9.68;4.82;;;21.50;1.00;;;;;;5112756;27;20569;-72
2021/07/09 11:41:09;;;;;;;5.68;4.68;;;21.70;1.00;;;;;;5111292;27;20122;-72
2021/07/09 11:43:57;;;;;;;7.20;5.25;;;21.50;1.00;;;;;;5105782;27;20066;-72
2021/07/09 11:46:48;;;;;;;6.38;5.28;;;21.30;1.00;;;;;;5108272;27;20158;-71
2021/07/09 11:49:38;;;;;;;9.18;6.35;;;21.90;1.00;;;;;;5095554;27;20039;-72
2021/07/09 11:52:28;;;;;;;8.73;6.22;;;22.20;1.00;;;;;;5111322;27;20047;-71
2021/07/09 11:55:21;;;;;;;7.75;5.95;;;21.50;1.00;;;;;;5111227;27;20055;-72
2021/07/09 11:58:13;;;;;;;10.27;7.05;;;21.70;1.00;;;;;;5107528;27;20176;-71
2021/07/09 12:01:01;;;;;;;10.13;7.40;;;21.30;1.00;;;;;;5111689;27;20395;-74
2021/07/09 12:03:50;;;;;;;12.15;6.38;;;21.30;1.00;;;;;;5109475;27;20422;-74
2021/07/09 12:06:38;;;;;;;10.93;7.70;;;20.90;1.00;;;;;;5095697;27;20054;-73
2021/07/09 12:09:26;;;;;;;9.60;8.02;;;20.30;2.70;;;;;;5109106;27;20086;-74
2021/07/09 12:12:17;;;;;;;9.18;8.20;;;20.60;6.80;;;;;;5111195;27;20108;-72
2021/07/09 12:15:12;;;;;;;9.77;8.73;;;20.70;7.10;;;;;;5113302;27;20051;-73
2021/07/09 12:18:02;;;;;;;9.38;8.25;;;20.90;7.30;;;;;;5112417;27;20038;-74
2021/07/09 12:20:51;;;;;;;10.05;8.68;;;20.90;6.40;;;;;;5109965;27;20051;-74
2021/07/09 12:23:39;;;;;;;9.20;8.02;;;20.20;11.50;;;;;;5108223;27;20039;-73
2021/07/09 12:26:28;;;;;;;12.25;9.35;;;19.80;13.10;;;;;;5109270;27;20096;-72
2021/07/09 12:29:17;;;;;;;10.50;8.65;;;20.10;16.70;;;;;;5110276;27;20044;-74
2021/07/09 12:32:06;;;;;;;24.98;20.83;;;20.20;17.30;;;;;;5109459;27;20079;-73
2021/07/09 12:35:06;;;;;;;11.82;9.07;;;20.40;16.10;;;;;;5110483;27;20055;-74
2021/07/09 12:38:01;;;;;;;9.23;7.88;;;20.90;14.10;;;;;;5094741;27;20657;-74
2021/07/09 12:40:51;;;;;;;10.25;8.65;;;20.60;10.30;;;;;;5107768;27;20044;-74
2021/07/09 12:43:57;;;;;;;9.48;8.45;;;20.90;7.80;;;;;;5112603;27;20041;-73
2021/07/09 12:46:47;;;;;;;10.77;7.80;;;21.50;10.20;;;;;;5108191;27;20510;-72
2021/07/09 12:49:35;;;;;;;10.73;7.60;;;21.60;8.90;;;;;;5105866;27;20066;-74
2021/07/09 12:52:24;;;;;;;8.93;7.53;;;21.10;4.10;;;;;;5109321;27;20051;-74
2021/07/09 12:55:36;;;;;;;11.05;7.60;;;21.30;4.60;;;;;;5106982;27;20068;-73
2021/07/09 12:58:26;;;;;;;7.95;7.10;;;21.60;1.50;;;;;;5095987;27;20035;-74
2021/07/09 13:01:16;;;;;;;8.63;6.43;;;21.40;2.00;;;;;;5115438;27;20920;-74
2021/07/09 13:04:19;;;;;;;8.70;6.82;;;21.20;2.90;;;;;;5109248;27;20043;-73
2021/07/09 13:07:10;;;;;;;10.75;7.38;;;21.00;5.10;;;;;;5110270;27;20043;-74
2021/07/09 13:09:58;;;;;;;7.82;5.78;;;21.50;5.80;;;;;;5107918;27;20035;-74
2021/07/09 13:12:47;;;;;;;6.85;5.30;;;21.50;4.30;;;;;;5111740;27;20057;-73
2021/07/09 13:15:35;;;;;;;7.75;4.97;;;21.20;1.60;;;;;;5107400;27;20445;-73
2021/07/09 13:18:26;;;;;;;8.88;5.45;;;21.60;1.20;;;;;;5110655;27;20382;-74
2021/07/09 13:21:16;;;;;;;7.38;5.13;;;21.60;1.00;;;;;;5111392;27;20055;-74
2021/07/09 13:24:07;;;;;;;7.50;4.65;;;21.50;1.00;;;;;;5109960;27;20043;-73
2021/07/09 13:26:56;;;;;;;5.93;4.03;;;21.70;1.00;;;;;;5109187;27;20039;-74
2021/07/09 13:29:44;;;;;;;4.68;3.17;;;22.10;1.00;;;;;;5090850;27;20049;-73
2021/07/09 13:32:33;;;;;;;3.67;2.92;;;22.50;1.00;;;;;;5110809;27;20854;-73
2021/07/09 13:35:22;;;;;;;4.28;3.58;;;22.20;1.00;;;;;;5115126;27;20043;-74
2021/07/09 13:38:13;;;;;;;3.88;3.35;;;22.60;1.00;;;;;;5110160;27;20418;-74
2021/07/09 13:41:01;;;;;;;5.85;3.30;;;22.40;1.00;;;;;;5108423;27;20375;-74
2021/07/09 13:43:50;;;;;;;4.80;3.88;;;22.70;1.00;;;;;;5106704;27;20057;-74
2021/07/09 13:46:45;;;;;;;8.70;4.60;;;22.20;1.00;;;;;;5094632;27;20051;-75
2021/07/09 13:49:33;;;;;;;5.15;4.22;;;22.00;1.00;;;;;;5111321;27;20055;-73
2021/07/09 13:52:22;;;;;;;4.45;4.00;;;21.90;1.00;;;;;;5091018;27;20087;-73
2021/07/09 13:55:13;;;;;;;6.88;5.18;;;22.00;1.00;;;;;;5092525;27;20120;-73
2021/07/09 13:58:02;;;;;;;6.13;5.05;;;22.20;1.00;;;;;;5110092;27;20085;-73
2021/07/09 14:00:50;;;;;;;7.07;4.93;;;21.70;1.00;;;;;;5106952;27;20040;-73
2021/07/09 14:03:40;;;;;;;7.53;5.50;;;21.70;1.00;;;;;;5110052;27;20593;-73
2021/07/09 14:06:28;;;;;;;6.47;5.10;;;21.50;1.00;;;;;;5113322;27;20117;-73
2021/07/09 14:09:17;;;;;;;7.15;5.72;;;21.20;1.00;;;;;;5104652;27;20053;-74
2021/07/09 14:12:09;;;;;;;7.97;4.97;;;21.00;1.00;;;;;;5106534;27;20220;-74
2021/07/09 14:14:57;;;;;;;6.45;4.18;;;20.40;1.00;;;;;;5107786;27;20128;-71
2021/07/09 14:17:46;;;;;;;9.07;4.30;;;19.80;1.00;;;;;;5110944;27;20134;-72
2021/07/09 14:20:34;;;;;;;4.25;3.38;;;19.30;1.00;;;;;;5109326;27;20512;-74
2021/07/09 14:23:23;;;;;;;4.95;3.00;;;19.00;1.00;;;;;;5110790;27;20058;-73
2021/07/09 14:26:11;;;;;;;3.40;3.10;;;19.10;1.00;;;;;;5106610;27;20047;-73
2021/07/09 14:29:02;;;;;;;3.92;2.78;;;18.70;1.00;;;;;;5108400;27;20044;-74
2021/07/09 14:31:50;;;;;;;4.45;2.95;;;18.90;1.00;;;;;;5108597;27;20422;-74
2021/07/09 14:34:39;;;;;;;5.10;2.88;;;18.70;1.00;;;;;;5109697;27;20059;-73
2021/07/09 14:37:30;;;;;;;5.53;2.88;;;18.60;1.90;;;;;;5111426;27;20051;-72
2021/07/09 14:40:20;;;;;;;6.70;2.67;;;19.00;1.10;;;;;;5102965;27;20051;-73
2021/07/09 14:43:12;;;;;;;3.35;2.80;;;19.00;1.10;;;;;;5085665;28;20101;-73
2021/07/09 14:46:02;;;;;;;4.60;3.03;;;19.20;1.20;;;;;;5109863;27;20072;-72